createdAt,value
2023-05-13T00:01:41.177Z,18.58
2023-05-13T00:04:08.520Z,18.58
2023-05-13T00:06:36.263Z,18.57
2023-05-13T00:09:03.716Z,18.57
2023-05-13T00:11:30.666Z,18.53
2023-05-13T00:13:57.863Z,18.54
2023-05-13T00:16:27.833Z,18.54
2023-05-13T00:18:56.101Z,18.53
2023-05-13T00:21:23.618Z,18.54
2023-05-13T00:23:50.356Z,18.53
2023-05-13T00:26:17.252Z,18.52
2023-05-13T00:28:47.276Z,18.53
2023-05-13T00:31:14.010Z,18.51
2023-05-13T00:33:40.989Z,18.51
2023-05-13T00:36:10.172Z,18.51
2023-05-13T00:38:37.252Z,18.50
2023-05-13T00:41:04.662Z,18.51
2023-05-13T00:43:31.670Z,18.50
2023-05-13T00:45:59.520Z,18.49
2023-05-13T00:48:26.801Z,18.50
2023-05-13T00:50:53.772Z,18.47
2023-05-13T00:53:20.838Z,18.49
2023-05-13T00:55:47.773Z,18.48
2023-05-13T00:58:14.548Z,18.47
2023-05-13T01:01:05.686Z,18.46
2023-05-13T01:03:49.365Z,18.43
2023-05-13T01:06:26.998Z,18.45
2023-05-13T01:09:03.260Z,18.44
2023-05-13T01:11:37.543Z,18.43
2023-05-13T01:14:15.048Z,18.40
2023-05-13T01:17:01.596Z,18.41
2023-05-13T01:19:46.932Z,18.40
2023-05-13T01:22:14.239Z,18.38
2023-05-13T01:24:41.866Z,18.40
2023-05-13T01:27:09.137Z,18.37
2023-05-13T01:29:36.449Z,18.37
2023-05-13T01:32:05.059Z,18.37
2023-05-13T01:34:33.424Z,18.37
2023-05-13T01:37:00.954Z,18.36
2023-05-13T01:39:28.843Z,18.35
2023-05-13T01:41:59.121Z,18.33
2023-05-13T01:44:26.044Z,18.33
2023-05-13T01:46:53.677Z,18.32
2023-05-13T01:49:20.953Z,18.30
2023-05-13T01:51:47.665Z,18.29
2023-05-13T01:54:14.407Z,18.29
2023-05-13T01:56:47.730Z,18.29
2023-05-13T01:59:14.953Z,18.27
2023-05-13T02:01:41.777Z,18.24
2023-05-13T02:04:08.581Z,18.28
2023-05-13T02:06:35.241Z,18.29
2023-05-13T02:09:02.517Z,18.30
2023-05-13T02:11:29.273Z,18.27
2023-05-13T02:13:57.591Z,18.24
2023-05-13T02:16:24.433Z,18.23
2023-05-13T02:18:51.643Z,18.21
2023-05-13T02:21:18.916Z,18.19
2023-05-13T02:23:45.799Z,18.20
2023-05-13T02:26:12.620Z,18.19
2023-05-13T02:28:39.500Z,18.16
2023-05-13T02:31:06.759Z,18.15
2023-05-13T02:33:33.996Z,18.13
2023-05-13T02:36:00.847Z,18.14
2023-05-13T02:38:27.538Z,18.12
2023-05-13T02:40:54.421Z,18.11
2023-05-13T02:43:21.787Z,18.10
2023-05-13T02:45:55.835Z,18.10
2023-05-13T02:48:22.671Z,18.09
2023-05-13T02:50:50.805Z,18.07
2023-05-13T02:53:17.747Z,18.05
2023-05-13T02:55:51.308Z,18.05
2023-05-13T02:58:18.490Z,18.05
2023-05-13T03:00:47.491Z,18.02
2023-05-13T03:03:14.504Z,18.04
2023-05-13T03:05:41.426Z,18.00
2023-05-13T03:08:08.472Z,18.01
2023-05-13T03:10:35.655Z,18.00
2023-05-13T03:13:02.468Z,17.97
2023-05-13T03:15:40.155Z,17.99
2023-05-13T03:18:08.101Z,18.00
2023-05-13T03:20:35.409Z,17.98
2023-05-13T03:23:03.627Z,17.96
2023-05-13T03:25:31.720Z,17.99
2023-05-13T03:27:59.037Z,17.95
2023-05-13T03:30:29.917Z,17.94
2023-05-13T03:33:02.868Z,17.92
2023-05-13T03:35:29.640Z,17.90
2023-05-13T03:37:56.462Z,17.88
2023-05-13T03:40:23.854Z,17.92
2023-05-13T03:42:51.882Z,17.91
2023-05-13T03:45:21.103Z,17.88
2023-05-13T03:47:50.740Z,17.87
2023-05-13T03:50:19.061Z,17.84
2023-05-13T03:52:47.196Z,17.82
2023-05-13T03:55:15.822Z,17.84
2023-05-13T03:57:43.700Z,17.87
2023-05-13T04:00:11.340Z,17.83
2023-05-13T04:02:44.109Z,17.82
2023-05-13T04:05:13.906Z,17.82
2023-05-13T04:07:41.443Z,17.82
2023-05-13T04:10:09.247Z,17.79
2023-05-13T04:12:36.211Z,17.78
2023-05-13T04:15:03.407Z,17.79
2023-05-13T04:17:30.439Z,17.80
2023-05-13T04:19:57.362Z,17.78
2023-05-13T04:22:24.526Z,17.76
2023-05-13T04:24:56.334Z,17.76
2023-05-13T04:27:24.253Z,17.74
2023-05-13T04:29:54.798Z,17.74
2023-05-13T04:32:22.238Z,17.74
2023-05-13T04:34:53.165Z,17.73
2023-05-13T04:37:20.796Z,17.73
2023-05-13T04:39:49.500Z,17.72
2023-05-13T04:42:18.647Z,17.70
2023-05-13T04:44:45.752Z,17.68
2023-05-13T04:47:12.672Z,17.71
2023-05-13T04:49:39.618Z,17.70
2023-05-13T04:52:07.179Z,17.68
2023-05-13T04:54:35.971Z,17.70
2023-05-13T04:57:03.821Z,17.69
2023-05-13T04:59:31.202Z,17.68
2023-05-13T05:01:58.488Z,17.64
2023-05-13T05:04:25.640Z,17.67
2023-05-13T05:06:52.626Z,17.67
2023-05-13T05:09:19.552Z,17.65
2023-05-13T05:11:50.443Z,17.67
2023-05-13T05:14:19.132Z,17.69
2023-05-13T05:16:46.266Z,17.68
2023-05-13T05:19:14.837Z,17.68
2023-05-13T05:21:41.824Z,17.68
2023-05-13T05:24:09.540Z,17.70
2023-05-13T05:26:36.328Z,17.70
2023-05-13T05:29:02.987Z,17.70
2023-05-13T05:31:30.489Z,17.68
2023-05-13T05:34:01.738Z,17.67
2023-05-13T05:36:31.415Z,17.67
2023-05-13T05:38:58.187Z,17.67
2023-05-13T05:41:31.519Z,17.67
2023-05-13T05:43:58.294Z,17.64
2023-05-13T05:46:25.591Z,17.64
2023-05-13T05:48:52.870Z,17.63
2023-05-13T05:51:20.547Z,17.63
2023-05-13T05:53:47.692Z,17.62
2023-05-13T05:56:16.456Z,17.62
2023-05-13T05:58:44.861Z,17.63
2023-05-13T06:01:12.139Z,17.62
2023-05-13T06:03:39.148Z,17.60
2023-05-13T06:06:06.330Z,17.60
2023-05-13T06:08:34.055Z,17.63
2023-05-13T06:11:01.420Z,17.64
2023-05-13T06:13:28.379Z,17.65
2023-05-13T06:15:55.559Z,17.67
2023-05-13T06:18:22.949Z,17.65
2023-05-13T06:20:49.894Z,17.67
2023-05-13T06:23:18.675Z,17.69
2023-05-13T06:25:45.737Z,17.67
2023-05-13T06:28:12.595Z,17.68
2023-05-13T06:30:39.497Z,17.67
2023-05-13T06:33:06.410Z,17.68
2023-05-13T06:35:33.186Z,17.68
2023-05-13T06:38:03.390Z,17.67
2023-05-13T06:40:30.134Z,17.70
2023-05-13T06:42:57.062Z,17.70
2023-05-13T06:45:29.597Z,17.70
2023-05-13T06:47:56.687Z,17.69
2023-05-13T06:50:23.704Z,17.73
2023-05-13T06:52:50.738Z,17.76
2023-05-13T06:55:19.005Z,17.76
2023-05-13T06:57:46.927Z,17.75
2023-05-13T07:00:17.789Z,17.78
2023-05-13T07:02:44.509Z,17.80
2023-05-13T07:05:12.282Z,17.79
2023-05-13T07:07:39.510Z,17.79
2023-05-13T07:10:06.443Z,17.80
2023-05-13T07:12:33.556Z,17.80
2023-05-13T07:15:00.315Z,17.84
2023-05-13T07:17:27.333Z,17.83
2023-05-13T07:19:54.313Z,17.83
2023-05-13T07:22:21.019Z,17.84
2023-05-13T07:24:47.744Z,17.84
2023-05-13T07:27:14.459Z,17.84
2023-05-13T07:29:41.344Z,17.83
2023-05-13T07:32:08.508Z,17.85
2023-05-13T07:34:35.353Z,17.88
2023-05-13T07:37:04.570Z,17.87
2023-05-13T07:39:31.383Z,17.84
2023-05-13T07:41:58.818Z,17.85
2023-05-13T07:44:26.055Z,17.86
2023-05-13T07:46:53.756Z,17.88
2023-05-13T07:49:21.332Z,17.89
2023-05-13T07:51:48.151Z,17.89
2023-05-13T07:54:14.849Z,17.90
2023-05-13T07:56:44.165Z,17.90
2023-05-13T07:59:11.256Z,17.90
2023-05-13T08:01:38.225Z,17.90
2023-05-13T08:04:05.380Z,17.92
2023-05-13T08:06:33.137Z,17.92
2023-05-13T08:08:59.970Z,17.93
2023-05-13T08:11:29.718Z,17.90
2023-05-13T08:13:56.446Z,17.92
2023-05-13T08:16:23.306Z,17.93
2023-05-13T08:18:50.192Z,17.93
2023-05-13T08:21:17.101Z,17.93
2023-05-13T08:23:45.980Z,17.95
2023-05-13T08:26:13.621Z,17.94
2023-05-13T08:28:41.916Z,17.94
2023-05-13T08:31:11.697Z,17.97
2023-05-13T08:33:38.429Z,17.95
2023-05-13T08:36:05.711Z,17.96
2023-05-13T08:38:33.606Z,17.97
2023-05-13T08:41:00.434Z,17.96
2023-05-13T08:43:28.463Z,17.96
2023-05-13T08:45:56.992Z,17.96
2023-05-13T08:48:24.828Z,17.97
2023-05-13T08:50:52.120Z,17.99
2023-05-13T08:53:18.958Z,18.00
2023-05-13T08:55:45.730Z,17.97
2023-05-13T08:58:12.798Z,17.99
2023-05-13T09:00:39.831Z,17.98
2023-05-13T09:03:07.217Z,18.00
2023-05-13T09:05:38.817Z,18.00
2023-05-13T09:08:09.988Z,18.00
2023-05-13T09:10:39.914Z,18.01
2023-05-13T09:13:07.250Z,18.01
2023-05-13T09:15:34.264Z,18.02
2023-05-13T09:18:05.978Z,18.03
2023-05-13T09:20:33.776Z,18.03
2023-05-13T09:23:10.986Z,18.04
2023-05-13T09:25:38.893Z,18.05
2023-05-13T09:28:07.826Z,18.07
2023-05-13T09:30:40.677Z,18.06
2023-05-13T09:33:13.539Z,18.07
2023-05-13T09:35:49.000Z,18.09
2023-05-13T09:38:41.661Z,18.09
2023-05-13T09:41:10.520Z,18.10
2023-05-13T09:43:39.137Z,18.11
2023-05-13T09:46:06.042Z,18.14
2023-05-13T09:48:33.982Z,18.12
2023-05-13T09:51:01.483Z,18.15
2023-05-13T09:53:28.851Z,18.16
2023-05-13T09:55:57.369Z,18.17
2023-05-13T09:58:25.416Z,18.20
2023-05-13T10:00:52.373Z,18.17
2023-05-13T10:03:19.318Z,18.18
2023-05-13T10:05:46.272Z,18.20
2023-05-13T10:08:15.631Z,18.21
2023-05-13T10:10:46.035Z,18.22
2023-05-13T10:13:16.101Z,18.22
2023-05-13T10:15:51.164Z,18.25
2023-05-13T10:18:19.228Z,18.26
2023-05-13T10:20:47.534Z,18.26
2023-05-13T10:23:14.389Z,18.26
2023-05-13T10:25:42.980Z,18.29
2023-05-13T10:28:10.712Z,18.28
2023-05-13T10:30:38.258Z,18.29
2023-05-13T10:33:05.489Z,18.31
2023-05-13T10:35:41.984Z,18.32
2023-05-13T10:38:14.378Z,18.32
2023-05-13T10:41:20.480Z,18.34
2023-05-13T10:43:47.473Z,18.33
2023-05-13T10:46:14.351Z,18.35
2023-05-13T10:48:51.030Z,18.36
2023-05-13T10:51:22.631Z,18.37
2023-05-13T10:53:49.277Z,18.37
2023-05-13T10:56:19.319Z,18.40
2023-05-13T10:58:57.811Z,18.39
2023-05-13T11:01:44.075Z,18.40
2023-05-13T11:04:21.486Z,18.40
2023-05-13T11:06:50.186Z,18.39
2023-05-13T11:09:22.926Z,18.42
2023-05-13T11:11:54.803Z,18.44
2023-05-13T11:14:26.181Z,18.44
2023-05-13T11:17:02.391Z,18.48
2023-05-13T11:19:36.163Z,18.49
2023-05-13T11:22:11.058Z,18.48
2023-05-13T11:24:38.427Z,18.51
2023-05-13T11:27:19.500Z,18.50
2023-05-13T11:29:57.501Z,18.53
2023-05-13T11:32:59.178Z,18.53
2023-05-13T11:35:33.251Z,18.55
2023-05-13T11:38:01.853Z,18.55
2023-05-13T11:40:31.185Z,18.57
2023-05-13T11:42:58.961Z,18.59
2023-05-13T11:45:27.190Z,18.61
2023-05-13T11:47:54.675Z,18.61
2023-05-13T11:50:32.934Z,18.62
2023-05-13T11:53:01.900Z,18.63
2023-05-13T11:55:34.150Z,18.64
2023-05-13T11:58:01.222Z,18.66
2023-05-13T12:00:35.161Z,18.68
2023-05-13T12:03:09.423Z,18.69
2023-05-13T12:05:36.472Z,18.71
2023-05-13T12:08:03.344Z,18.71
2023-05-13T12:10:30.266Z,18.72
2023-05-13T12:12:57.414Z,18.72
2023-05-13T12:15:24.580Z,18.74
2023-05-13T12:17:51.916Z,18.79
2023-05-13T12:20:23.436Z,18.81
2023-05-13T12:22:50.217Z,18.82
2023-05-13T12:25:35.408Z,18.82
2023-05-13T12:28:16.495Z,18.83
2023-05-13T12:30:57.133Z,18.87
2023-05-13T12:33:26.674Z,18.89
2023-05-13T12:36:14.400Z,18.89
2023-05-13T12:39:03.357Z,18.90
2023-05-13T12:41:31.875Z,18.93
2023-05-13T12:44:00.945Z,18.94
2023-05-13T12:46:28.633Z,18.93
2023-05-13T12:48:57.659Z,18.91
2023-05-13T12:51:24.886Z,18.94
2023-05-13T12:53:54.203Z,18.93
2023-05-13T12:56:23.166Z,18.94
2023-05-13T12:58:51.212Z,18.95
2023-05-13T13:01:18.336Z,18.99
2023-05-13T13:03:45.970Z,19.02
2023-05-13T13:06:13.772Z,19.02
2023-05-13T13:08:40.853Z,19.02
2023-05-13T13:11:07.578Z,19.04
2023-05-13T13:13:34.865Z,19.04
2023-05-13T13:16:02.772Z,19.03
2023-05-13T13:18:29.625Z,19.02
2023-05-13T13:20:56.356Z,19.03
2023-05-13T13:23:23.165Z,19.02
2023-05-13T13:25:49.937Z,19.02
2023-05-13T13:28:16.889Z,19.01
2023-05-13T13:30:46.805Z,19.02
2023-05-13T13:33:15.073Z,19.03
2023-05-13T13:35:44.073Z,19.04
2023-05-13T13:38:11.354Z,19.01
2023-05-13T13:40:38.183Z,19.04
2023-05-13T13:43:07.104Z,19.04
2023-05-13T13:45:34.666Z,19.03
2023-05-13T13:48:01.636Z,19.03
2023-05-13T13:50:29.094Z,19.03
2023-05-13T13:52:56.105Z,19.03
2023-05-13T13:55:24.262Z,19.01
2023-05-13T13:57:52.064Z,18.99
2023-05-13T14:00:19.499Z,18.98
2023-05-13T14:02:46.530Z,18.98
2023-05-13T14:05:13.713Z,18.96
2023-05-13T14:07:40.522Z,18.95
2023-05-13T14:10:08.051Z,18.96
2023-05-13T14:12:36.465Z,18.98
2023-05-13T14:15:03.674Z,18.97
2023-05-13T14:17:31.010Z,18.96
2023-05-13T14:19:57.972Z,18.96
2023-05-13T14:22:24.992Z,18.93
2023-05-13T14:24:52.857Z,18.93
2023-05-13T14:27:20.859Z,18.96
2023-05-13T14:29:48.446Z,18.95
2023-05-13T14:32:15.404Z,18.95
2023-05-13T14:34:42.745Z,18.95
2023-05-13T14:37:09.689Z,18.94
2023-05-13T14:39:37.062Z,18.94
2023-05-13T14:42:04.420Z,18.93
2023-05-13T14:44:31.809Z,18.94
2023-05-13T14:46:58.759Z,18.96
2023-05-13T14:49:25.623Z,19.00
2023-05-13T14:51:52.727Z,18.99
2023-05-13T14:54:19.645Z,18.98
2023-05-13T14:56:46.557Z,19.00
2023-05-13T14:59:13.428Z,18.99
2023-05-13T15:01:40.162Z,19.01
2023-05-13T15:04:07.066Z,19.04
2023-05-13T15:06:34.272Z,19.07
2023-05-13T15:09:01.049Z,19.10
2023-05-13T15:11:28.435Z,19.14
2023-05-13T15:13:55.857Z,19.14
2023-05-13T15:16:22.967Z,19.17
2023-05-13T15:18:50.525Z,19.20
2023-05-13T15:21:17.785Z,19.20
2023-05-13T15:23:44.905Z,19.22
2023-05-13T15:26:11.848Z,19.19
2023-05-13T15:28:38.666Z,19.19
2023-05-13T15:31:06.304Z,19.17
2023-05-13T15:33:33.524Z,19.15
2023-05-13T15:36:01.156Z,19.14
2023-05-13T15:38:28.103Z,19.14
2023-05-13T15:40:54.949Z,19.14
2023-05-13T15:43:21.678Z,19.14
2023-05-13T15:45:50.127Z,19.11
2023-05-13T15:48:17.780Z,19.11
2023-05-13T15:50:44.983Z,19.13
2023-05-13T15:53:11.799Z,19.19
2023-05-13T15:55:39.599Z,19.19
2023-05-13T15:58:07.149Z,19.18
2023-05-13T16:00:34.475Z,19.17
2023-05-13T16:03:01.610Z,19.15
2023-05-13T16:05:28.656Z,19.17
2023-05-13T16:07:57.166Z,19.25
2023-05-13T16:10:24.265Z,19.31
2023-05-13T16:12:51.635Z,19.32
2023-05-13T16:15:18.617Z,19.33
2023-05-13T16:17:45.428Z,19.32
2023-05-13T16:20:13.340Z,19.33
2023-05-13T16:22:40.795Z,19.34
2023-05-13T16:25:09.594Z,19.33
2023-05-13T16:27:37.805Z,19.35
2023-05-13T16:30:06.936Z,19.39
2023-05-13T16:32:34.757Z,19.39
2023-05-13T16:35:02.600Z,19.40
2023-05-13T16:37:29.876Z,19.41
2023-05-13T16:39:57.129Z,19.43
2023-05-13T16:42:23.994Z,19.44
2023-05-13T16:44:50.879Z,19.46
2023-05-13T16:47:17.673Z,19.46
2023-05-13T16:49:45.420Z,19.46
2023-05-13T16:52:12.360Z,19.49
2023-05-13T16:54:39.383Z,19.49
2023-05-13T16:57:06.192Z,19.50
2023-05-13T16:59:33.088Z,19.50
2023-05-13T17:02:00.821Z,19.51
2023-05-13T17:04:28.451Z,19.52
2023-05-13T17:06:58.281Z,19.54
2023-05-13T17:09:26.178Z,19.54
2023-05-13T17:11:54.868Z,19.52
2023-05-13T17:14:22.389Z,19.50
2023-05-13T17:16:49.590Z,19.50
2023-05-13T17:19:16.579Z,19.46
2023-05-13T17:21:43.367Z,19.41
2023-05-13T17:24:10.263Z,19.42
2023-05-13T17:26:38.781Z,19.41
2023-05-13T17:29:06.314Z,19.43
2023-05-13T17:31:33.736Z,19.43
2023-05-13T17:34:00.793Z,19.44
2023-05-13T17:36:27.767Z,19.39
2023-05-13T17:38:54.565Z,19.38
2023-05-13T17:41:21.777Z,19.36
2023-05-13T17:43:48.550Z,19.37
2023-05-13T17:46:15.336Z,19.36
2023-05-13T17:48:42.684Z,19.35
2023-05-13T17:51:11.288Z,19.33
2023-05-13T17:53:38.320Z,19.32
2023-05-13T17:56:06.170Z,19.32
2023-05-13T17:58:32.983Z,19.34
2023-05-13T18:00:59.898Z,19.31
2023-05-13T18:03:26.884Z,19.31
2023-05-13T18:05:54.049Z,19.32
2023-05-13T18:08:20.889Z,19.31
2023-05-13T18:10:48.517Z,19.29
2023-05-13T18:13:15.429Z,19.26
2023-05-13T18:15:42.091Z,19.28
2023-05-13T18:18:09.885Z,19.26
2023-05-13T18:20:36.838Z,19.26
2023-05-13T18:23:03.489Z,19.25
2023-05-13T18:25:31.330Z,19.24
2023-05-13T18:27:58.178Z,19.24
2023-05-13T18:30:25.065Z,19.24
2023-05-13T18:32:52.103Z,19.24
2023-05-13T18:35:21.487Z,19.21
2023-05-13T18:37:48.403Z,19.22
2023-05-13T18:40:15.138Z,19.21
2023-05-13T18:42:41.997Z,19.22
2023-05-13T18:45:09.985Z,19.21
2023-05-13T18:47:36.892Z,19.19
2023-05-13T18:50:03.796Z,19.19
2023-05-13T18:52:30.602Z,19.19
2023-05-13T18:54:57.442Z,19.18
2023-05-13T18:57:24.400Z,19.20
2023-05-13T18:59:52.314Z,19.18
2023-05-13T19:02:19.655Z,19.18
2023-05-13T19:04:46.576Z,19.18
2023-05-13T19:07:13.355Z,19.18
2023-05-13T19:09:40.154Z,19.19
2023-05-13T19:12:07.695Z,19.19
2023-05-13T19:14:34.450Z,19.17
2023-05-13T19:17:01.730Z,19.19
2023-05-13T19:19:28.570Z,19.19
2023-05-13T19:21:55.638Z,19.19
2023-05-13T19:24:22.593Z,19.19
2023-05-13T19:26:49.799Z,19.17
2023-05-13T19:29:16.486Z,19.16
2023-05-13T19:31:43.206Z,19.18
2023-05-13T19:34:10.026Z,19.16
2023-05-13T19:36:36.750Z,19.17
2023-05-13T19:39:03.628Z,19.18
2023-05-13T19:41:30.435Z,19.18
2023-05-13T19:43:57.163Z,19.20
2023-05-13T19:46:24.053Z,19.20
2023-05-13T19:48:50.990Z,19.19
2023-05-13T19:51:18.270Z,19.21
2023-05-13T19:53:45.130Z,19.17
2023-05-13T19:56:11.960Z,19.19
2023-05-13T19:58:38.737Z,19.17
2023-05-13T20:01:05.707Z,19.15
2023-05-13T20:03:32.594Z,19.14
2023-05-13T20:05:59.370Z,19.18
2023-05-13T20:08:26.252Z,19.16
2023-05-13T20:10:52.981Z,19.15
2023-05-13T20:13:19.646Z,19.16
2023-05-13T20:15:46.550Z,19.15
2023-05-13T20:18:13.518Z,19.15
2023-05-13T20:20:41.670Z,19.14
2023-05-13T20:23:08.760Z,19.15
2023-05-13T20:25:35.833Z,19.14
2023-05-13T20:28:02.643Z,19.13
2023-05-13T20:30:29.346Z,19.14
2023-05-13T20:32:56.092Z,19.13
2023-05-13T20:35:22.933Z,19.13
2023-05-13T20:37:49.733Z,19.16
2023-05-13T20:40:16.739Z,19.13
2023-05-13T20:42:43.562Z,19.15
2023-05-13T20:45:10.677Z,19.13
2023-05-13T20:47:37.740Z,19.15
2023-05-13T20:50:05.069Z,19.18
2023-05-13T20:52:31.890Z,19.19
2023-05-13T20:54:59.317Z,19.19
2023-05-13T20:57:26.094Z,19.19
2023-05-13T20:59:53.137Z,19.15
2023-05-13T21:02:20.021Z,19.16
2023-05-13T21:04:46.954Z,19.16
2023-05-13T21:07:13.806Z,19.15
2023-05-13T21:09:40.649Z,19.15
2023-05-13T21:12:07.705Z,19.15
2023-05-13T21:14:34.554Z,19.14
2023-05-13T21:17:03.469Z,19.16
2023-05-13T21:19:30.780Z,19.14
2023-05-13T21:21:58.606Z,19.14
2023-05-13T21:24:25.695Z,19.14
2023-05-13T21:26:52.661Z,19.13
2023-05-13T21:29:19.507Z,19.13
2023-05-13T21:31:47.549Z,19.13
2023-05-13T21:34:14.412Z,19.15
2023-05-13T21:36:41.292Z,19.12
2023-05-13T21:39:10.358Z,19.13
2023-05-13T21:41:37.042Z,19.12
2023-05-13T21:44:04.019Z,19.13
2023-05-13T21:46:30.699Z,19.13
2023-05-13T21:48:59.772Z,19.14
2023-05-13T21:51:26.422Z,19.14
2023-05-13T21:53:53.299Z,19.12
2023-05-13T21:56:20.170Z,19.14
2023-05-13T21:58:47.139Z,19.12
2023-05-13T22:01:13.870Z,19.10
2023-05-13T22:03:41.554Z,19.12
2023-05-13T22:06:08.378Z,19.14
2023-05-13T22:08:36.579Z,19.11
2023-05-13T22:11:04.139Z,19.13
2023-05-13T22:13:30.791Z,19.12
2023-05-13T22:15:57.514Z,19.13
2023-05-13T22:18:24.627Z,19.15
2023-05-13T22:20:51.457Z,19.13
2023-05-13T22:23:18.172Z,19.15
2023-05-13T22:25:44.904Z,19.14
2023-05-13T22:28:11.832Z,19.12
2023-05-13T22:30:38.635Z,19.12
2023-05-13T22:33:05.649Z,19.13
2023-05-13T22:35:36.299Z,19.12
2023-05-13T22:38:05.926Z,19.12
2023-05-13T22:40:32.571Z,19.12
2023-05-13T22:42:59.333Z,19.10
2023-05-13T22:45:26.144Z,19.10
2023-05-13T22:47:53.174Z,19.08
2023-05-13T22:50:20.355Z,19.08
2023-05-13T22:52:47.204Z,19.09
2023-05-13T22:55:13.882Z,19.09
2023-05-13T22:57:40.796Z,19.08
2023-05-13T23:00:08.306Z,19.06
2023-05-13T23:02:35.213Z,19.08
2023-05-13T23:05:02.112Z,19.06
2023-05-13T23:07:28.979Z,19.06
2023-05-13T23:09:56.059Z,19.04
2023-05-13T23:12:23.470Z,19.03
2023-05-13T23:14:50.254Z,19.03
2023-05-13T23:17:17.023Z,19.02
2023-05-13T23:19:43.751Z,19.03
2023-05-13T23:22:10.552Z,19.02
2023-05-13T23:24:37.381Z,19.02
2023-05-13T23:27:04.196Z,19.01
2023-05-13T23:29:30.880Z,19.02
2023-05-13T23:31:57.571Z,19.01
2023-05-13T23:34:24.451Z,19.00
2023-05-13T23:36:51.294Z,19.00
2023-05-13T23:39:18.005Z,18.99
2023-05-13T23:41:44.723Z,18.98
2023-05-13T23:44:11.969Z,18.99
2023-05-13T23:46:38.914Z,18.96
2023-05-13T23:49:05.822Z,18.97
2023-05-13T23:51:32.777Z,18.98
2023-05-13T23:53:59.973Z,18.95
2023-05-13T23:56:26.944Z,18.97
2023-05-13T23:58:53.983Z,18.96
